Time;durP1;ratioP1;P1;durP2;ratioP2;P2;SDS_P1;SDS_P2;PMS_P1;PMS_P2;Temp;Humidity;BMP_temperature;BMP_pressure;BME280_temperature;BME280_humidity;BME280_pressure;Samples;Min_cycle;Max_cycle;Signal;HPM_P1;HPM_P2
2022/05/30 00:01:54;;;;;;;3.20;2.90;;;;;;;15.50;46.50;98907.31;4161339;28;20236;-68
2022/05/30 00:03:56;;;;;;;2.70;2.50;;;;;;;15.72;45.99;98875.72;4161477;28;20236;-68
2022/05/30 00:05:58;;;;;;;3.63;3.33;;;;;;;15.26;46.93;98923.06;4164965;28;20254;-68
2022/05/30 00:08:00;;;;;;;2.83;2.63;;;;;;;15.22;47.52;98862.91;4166791;28;20290;-68
2022/05/30 00:10:02;;;;;;;2.70;2.50;;;;;;;15.25;47.50;98848.28;4160731;28;20274;-68
2022/05/30 00:12:05;;;;;;;3.20;2.90;;;;;;;15.79;46.50;98801.47;4165141;28;20240;-68
2022/05/30 00:14:07;;;;;;;2.70;2.50;;;;;;;16.24;45.67;98803.19;4169763;28;20232;-68
2022/05/30 00:16:14;;;;;;;3.17;2.83;;;;;;;16.26;45.29;98832.47;4166078;28;20744;-68
2022/05/30 00:18:17;;;;;;;2.63;2.43;;;;;;;15.88;46.24;98831.50;4168727;28;20242;-68
2022/05/30 00:20:19;;;;;;;2.70;2.50;;;;;;;16.08;45.34;98838.59;4163421;28;20244;-68
2022/05/30 00:22:20;;;;;;;3.40;2.53;;;;;;;16.52;44.83;98804.63;4163595;28;20822;-68
2022/05/30 00:24:23;;;;;;;3.00;2.70;;;;;;;16.30;45.39;98839.88;4169185;28;20228;-68
2022/05/30 00:26:24;;;;;;;2.90;2.60;;;;;;;15.88;46.21;98889.66;4151235;28;20240;-68
2022/05/30 00:28:26;;;;;;;2.90;2.70;;;;;;;15.36;46.72;98919.13;4155089;28;20228;-68
2022/05/30 00:30:28;;;;;;;4.50;2.70;;;;;;;15.61;46.61;98842.34;4145429;28;20881;-68
2022/05/30 00:32:32;;;;;;;3.00;2.80;;;;;;;15.49;47.35;98856.63;4146118;28;20224;-68
2022/05/30 00:34:35;;;;;;;3.00;2.80;;;;;;;16.07;45.86;98797.53;4151060;28;20282;-68
2022/05/30 00:36:37;;;;;;;3.00;2.70;;;;;;;16.49;44.99;98794.34;4148174;28;20285;-68
2022/05/30 00:38:39;;;;;;;4.80;3.00;;;;;;;15.62;46.94;98848.53;4151079;28;20591;-68
2022/05/30 00:40:42;;;;;;;3.70;2.47;;;;;;;15.93;46.40;98804.03;4149711;28;20826;-68
2022/05/30 00:42:43;;;;;;;2.73;2.53;;;;;;;16.13;45.75;98798.53;4147784;28;21114;-68
2022/05/30 00:44:51;;;;;;;3.37;3.07;;;;;;;15.95;46.07;98824.25;4152389;28;20212;-68
2022/05/30 00:46:52;;;;;;;2.83;2.60;;;;;;;16.41;45.17;98773.94;4149674;28;20278;-68
2022/05/30 00:48:58;;;;;;;3.07;2.77;;;;;;;15.10;47.74;98893.22;4148867;28;20235;-68
2022/05/30 00:51:06;;;;;;;2.70;2.50;;;;;;;15.43;46.88;98864.47;4140021;28;20240;-68
2022/05/30 00:53:08;;;;;;;2.83;2.63;;;;;;;16.14;45.92;98809.03;4141816;28;20233;-68
2022/05/30 00:55:17;;;;;;;3.03;2.83;;;;;;;16.30;45.53;98771.97;4149477;28;20240;-68
2022/05/30 00:57:22;;;;;;;3.00;2.80;;;;;;;15.94;46.20;98800.31;4148337;28;20225;-68
2022/05/30 00:59:24;;;;;;;3.20;2.90;;;;;;;15.63;46.60;98848.34;4146172;28;20282;-68
2022/05/30 01:01:28;;;;;;;3.40;3.10;;;;;;;15.39;46.56;98859.78;4151706;28;20248;-68
2022/05/30 01:08:11;;;;;;;3.63;3.00;;;;;;;15.46;46.82;98812.34;4151487;28;20814;-67
2022/05/30 01:10:18;;;;;;;3.37;3.07;;;;;;;15.47;46.99;98816.66;4144993;28;20294;-67
2022/05/30 01:12:36;;;;;;;3.80;3.27;;;;;;;15.69;46.64;98768.94;4143802;28;20904;-68
2022/05/30 01:14:41;;;;;;;4.93;3.27;;;;;;;15.33;46.93;98847.22;4148869;28;20227;-67
2022/05/30 01:16:42;;;;;;;3.50;3.20;;;;;;;15.47;46.93;98805.13;4164074;28;21147;-67
2022/05/30 01:18:52;;;;;;;3.20;2.90;;;;;;;15.16;47.63;98845.00;4154053;28;20225;-68
2022/05/30 01:21:16;;;;;;;3.93;2.90;;;;;;;14.50;48.86;98878.03;4151319;28;20224;-68
2022/05/30 01:23:26;;;;;;;4.43;3.20;;;;;;;14.94;48.55;98792.78;4149168;28;20782;-67
2022/05/30 01:25:40;;;;;;;4.77;3.00;;;;;;;15.17;47.47;98822.56;4145617;28;20255;-68
2022/05/30 01:28:08;;;;;;;3.67;3.27;;;;;;;15.65;46.86;98740.94;4145014;28;20235;-67
2022/05/30 01:30:15;;;;;;;3.10;2.80;;;;;;;15.12;47.87;98789.41;4147734;28;20227;-68
2022/05/30 01:32:22;;;;;;;3.43;3.10;;;;;;;15.44;47.29;98767.03;4147961;28;20399;-67
2022/05/30 01:34:26;;;;;;;3.37;3.07;;;;;;;14.97;47.76;98827.97;4147429;28;20991;-67
2022/05/30 01:36:31;;;;;;;4.10;3.17;;;;;;;15.31;47.04;98799.22;4145346;28;20242;-67
2022/05/30 01:38:32;;;;;;;3.93;3.50;;;;;;;15.26;47.52;98777.63;4149575;28;20294;-67
2022/05/30 01:40:35;;;;;;;3.60;3.07;;;;;;;15.40;46.98;98789.91;4153284;28;20241;-68
2022/05/30 01:42:36;;;;;;;3.33;3.03;;;;;;;15.72;46.18;98762.34;4148462;28;20261;-67
2022/05/30 01:44:38;;;;;;;3.20;3.00;;;;;;;15.33;47.36;98801.69;4149615;28;20236;-67
2022/05/30 01:46:40;;;;;;;4.40;3.03;;;;;;;14.96;47.78;98829.00;4142016;28;20301;-67
2022/05/30 01:48:43;;;;;;;4.50;3.43;;;;;;;15.35;47.33;98751.41;4143578;28;20209;-68
2022/05/30 01:50:45;;;;;;;4.87;3.20;;;;;;;15.17;47.66;98790.44;4165420;28;20289;-68
2022/05/30 01:52:46;;;;;;;3.33;3.03;;;;;;;14.66;48.46;98844.69;4165017;28;20215;-68
2022/05/30 01:54:48;;;;;;;3.40;3.10;;;;;;;14.98;47.71;98796.69;4164229;28;20208;-68
2022/05/30 01:56:50;;;;;;;3.20;2.90;;;;;;;15.13;47.42;98785.72;4165121;28;20208;-68
2022/05/30 01:58:51;;;;;;;3.20;3.00;;;;;;;14.24;49.29;98874.34;4161891;28;20682;-68
2022/05/30 02:00:54;;;;;;;3.77;3.27;;;;;;;14.80;48.40;98784.81;4147612;28;20259;-68
2022/05/30 02:02:55;;;;;;;4.30;2.70;;;;;;;14.88;47.92;98795.28;4149749;28;20273;-68
2022/05/30 02:04:57;;;;;;;3.93;3.50;;;;;;;14.86;48.37;98775.91;4144999;28;20204;-68
2022/05/30 02:06:59;;;;;;;4.57;3.17;;;;;;;15.40;46.93;98727.47;4148192;28;20247;-68
2022/05/30 02:09:02;;;;;;;3.17;2.90;;;;;;;15.24;47.49;98766.31;4153989;28;20236;-68
2022/05/30 02:11:04;;;;;;;3.17;2.90;;;;;;;14.83;47.78;98823.69;4166451;28;20248;-68
2022/05/30 02:13:06;;;;;;;3.33;3.03;;;;;;;15.38;47.00;98745.63;4163151;28;20242;-68
2022/05/30 02:15:08;;;;;;;3.57;3.23;;;;;;;15.20;46.99;98805.25;4165729;28;21259;-68
2022/05/30 02:17:10;;;;;;;3.43;3.13;;;;;;;14.24;49.29;98860.97;4163430;28;20231;-68
2022/05/30 02:19:12;;;;;;;3.10;2.80;;;;;;;14.20;49.24;98835.66;4159779;28;20336;-68
2022/05/30 02:21:14;;;;;;;3.40;3.10;;;;;;;14.56;48.58;98799.63;4166670;28;20426;-68
2022/05/30 02:23:16;;;;;;;3.70;3.30;;;;;;;13.88;49.96;98845.28;4164181;28;20232;-68
2022/05/30 02:25:18;;;;;;;3.40;2.70;;;;;;;13.90;50.05;98813.81;4159786;28;20670;-68
2022/05/30 02:27:20;;;;;;;5.37;2.97;;;;;;;14.32;49.00;98801.09;4161204;28;20928;-68
2022/05/30 02:29:22;;;;;;;3.77;3.13;;;;;;;15.14;47.59;98733.81;4162397;28;20294;-68
2022/05/30 02:31:24;;;;;;;4.23;3.10;;;;;;;15.47;46.86;98760.38;4163534;28;20251;-68
2022/05/30 02:38:07;;;;;;;3.37;3.07;;;;;;;15.13;47.58;98786.53;4164052;28;20231;-68
2022/05/30 02:40:09;;;;;;;3.40;3.10;;;;;;;15.19;47.19;98796.41;4156269;28;20301;-68
2022/05/30 02:42:11;;;;;;;3.40;3.10;;;;;;;15.08;47.39;98805.09;4161881;28;20231;-68
2022/05/30 02:44:14;;;;;;;3.63;3.20;;;;;;;15.35;46.75;98791.59;4165840;28;20243;-68
2022/05/30 02:46:17;;;;;;;3.80;3.50;;;;;;;15.20;47.10;98797.22;4149380;28;20225;-68
2022/05/30 02:48:19;;;;;;;3.63;3.30;;;;;;;15.04;47.33;98822.59;4147793;28;20229;-68
2022/05/30 02:50:21;;;;;;;4.00;3.60;;;;;;;14.61;48.17;98863.22;4151760;28;20913;-68
2022/05/30 02:52:22;;;;;;;4.07;3.20;;;;;;;15.20;46.78;98802.56;4149705;28;20225;-68
2022/05/30 02:54:25;;;;;;;3.90;3.13;;;;;;;14.42;48.42;98881.72;4148620;28;20237;-69
2022/05/30 02:56:27;;;;;;;3.70;3.40;;;;;;;14.32;48.94;98838.53;4146414;28;20657;-66
2022/05/30 02:58:29;;;;;;;3.10;2.90;;;;;;;14.83;47.64;98811.16;4146159;28;20221;-69
2022/05/30 03:00:31;;;;;;;3.90;3.50;;;;;;;14.78;47.94;98807.44;4144254;28;20299;-69
2022/05/30 03:02:33;;;;;;;3.40;3.10;;;;;;;14.64;48.08;98820.81;4147842;28;20232;-69
2022/05/30 03:04:34;;;;;;;3.80;3.10;;;;;;;14.72;48.04;98809.06;4145330;28;20896;-69
2022/05/30 03:06:36;;;;;;;3.97;3.50;;;;;;;14.55;48.48;98815.91;4146388;28;20229;-69
2022/05/30 03:08:38;;;;;;;4.57;3.77;;;;;;;14.54;48.45;98836.47;4149934;28;20836;-68
2022/05/30 03:10:40;;;;;;;5.33;3.67;;;;;;;14.54;48.48;98827.63;4149051;28;20302;-68
2022/05/30 03:12:42;;;;;;;3.83;3.40;;;;;;;14.40;48.72;98816.94;4143552;28;20793;-68
2022/05/30 03:14:43;;;;;;;5.80;4.00;;;;;;;14.55;48.51;98806.00;4146497;28;20271;-68
2022/05/30 03:16:45;;;;;;;5.80;3.43;;;;;;;14.54;48.22;98841.81;4144129;28;20697;-69
2022/05/30 03:18:47;;;;;;;4.20;3.60;;;;;;;15.03;47.56;98783.47;4148991;28;20209;-69
2022/05/30 03:20:49;;;;;;;4.30;3.40;;;;;;;14.30;48.80;98880.69;4143966;28;20311;-69
2022/05/30 03:22:51;;;;;;;5.67;3.40;;;;;;;15.15;47.38;98795.16;4143665;28;20212;-68
2022/05/30 03:24:52;;;;;;;4.00;3.60;;;;;;;15.25;46.98;98792.03;4143311;28;20567;-68
2022/05/30 03:26:54;;;;;;;3.60;3.30;;;;;;;14.47;48.27;98881.13;4141510;28;20674;-68
2022/05/30 03:28:56;;;;;;;4.53;3.67;;;;;;;15.13;47.16;98797.22;4145480;28;20208;-68
2022/05/30 03:30:58;;;;;;;3.90;3.57;;;;;;;14.69;47.92;98866.50;4147867;28;20284;-68
2022/05/30 03:33:00;;;;;;;4.00;3.70;;;;;;;14.89;47.66;98826.34;4148387;28;20255;-69
2022/05/30 03:35:04;;;;;;;4.00;3.67;;;;;;;14.62;47.86;98880.91;4144375;28;20259;-71
2022/05/30 03:37:06;;;;;;;5.37;3.80;;;;;;;14.95;47.55;98805.97;4146714;28;20706;-75
2022/05/30 03:39:07;;;;;;;4.37;3.97;;;;;;;14.72;47.80;98845.72;4144055;28;20237;-67
2022/05/30 03:41:09;;;;;;;4.17;3.77;;;;;;;13.91;49.09;98933.06;4143938;28;20232;-66
2022/05/30 03:43:11;;;;;;;3.97;3.50;;;;;;;14.39;48.49;98874.09;4148008;28;20231;-67
2022/05/30 03:45:13;;;;;;;4.10;3.70;;;;;;;15.22;46.99;98793.28;4150966;28;20244;-68
2022/05/30 03:47:15;;;;;;;4.27;3.73;;;;;;;14.93;46.96;98845.47;4146016;28;20777;-68
2022/05/30 03:49:17;;;;;;;4.97;3.67;;;;;;;14.28;48.84;98864.88;4152479;28;20224;-67
2022/05/30 03:51:19;;;;;;;4.67;3.90;;;;;;;14.40;48.28;98888.31;4147893;28;20240;-68
2022/05/30 03:53:20;;;;;;;3.77;3.47;;;;;;;14.91;47.56;98804.72;4148942;28;20236;-67
2022/05/30 03:55:22;;;;;;;7.07;4.13;;;;;;;14.97;47.09;98827.16;4148819;28;20229;-67
2022/05/30 03:57:24;;;;;;;5.03;4.17;;;;;;;14.61;48.04;98856.00;4152371;28;20244;-68
2022/05/30 03:59:25;;;;;;;5.83;3.93;;;;;;;14.59;48.12;98855.38;4149230;28;20232;-68
2022/05/30 04:01:34;;;;;;;4.43;3.90;;;;;;;14.82;47.66;98816.69;4145467;28;20252;-67
2022/05/30 04:03:36;;;;;;;4.40;4.00;;;;;;;14.58;47.93;98847.56;4149633;28;20676;-68
2022/05/30 04:05:39;;;;;;;4.43;3.90;;;;;;;14.40;48.40;98864.25;4151280;28;20227;-68
2022/05/30 04:07:41;;;;;;;6.60;4.33;;;;;;;14.83;47.72;98829.03;4150310;28;20244;-68
2022/05/30 04:09:43;;;;;;;4.80;4.40;;;;;;;13.48;50.06;98951.94;4149423;28;20241;-68
2022/05/30 04:11:44;;;;;;;5.33;4.83;;;;;;;13.66;49.55;98946.91;4146848;28;20225;-67
2022/05/30 04:13:46;;;;;;;4.60;4.20;;;;;;;13.87;48.82;98940.66;4147165;28;20695;-68
2022/05/30 04:15:48;;;;;;;5.60;4.80;;;;;;;13.86;49.69;98890.91;4143687;28;20297;-68
2022/05/30 04:17:50;;;;;;;6.47;4.60;;;;;;;13.81;50.16;98860.44;4154923;28;20302;-68
2022/05/30 04:19:51;;;;;;;7.17;4.13;;;;;;;14.10;49.46;98853.94;4149831;28;20367;-67
2022/05/30 04:21:53;;;;;;;4.87;4.13;;;;;;;13.93;49.46;98886.41;4145493;28;20295;-68
2022/05/30 04:23:55;;;;;;;5.23;4.30;;;;;;;13.95;49.62;98872.84;4146717;28;20737;-68
2022/05/30 04:25:56;;;;;;;5.00;4.50;;;;;;;13.95;49.90;98848.78;4147496;28;20351;-68
2022/05/30 04:27:58;;;;;;;4.73;4.20;;;;;;;13.27;51.11;98928.84;4151259;28;20279;-68
2022/05/30 04:30:00;;;;;;;5.47;4.37;;;;;;;13.42;51.11;98896.69;4147208;28;20689;-68
2022/05/30 04:32:03;;;;;;;4.60;4.20;;;;;;;13.63;50.57;98875.19;4151053;28;20274;-68
2022/05/30 04:34:07;;;;;;;5.70;4.30;;;;;;;14.33;49.41;98811.59;4144943;28;20248;-67
2022/05/30 04:36:11;;;;;;;4.63;3.90;;;;;;;13.49;51.56;98850.28;4152440;28;20647;-68
2022/05/30 04:38:13;;;;;;;5.37;4.20;;;;;;;13.75;50.32;98878.09;4147726;28;20747;-68
2022/05/30 04:40:18;;;;;;;4.63;4.20;;;;;;;14.34;49.74;98799.03;4150276;28;20842;-68
2022/05/30 04:42:19;;;;;;;6.20;4.70;;;;;;;12.93;52.17;98965.16;4152030;28;20229;-67
2022/05/30 04:44:21;;;;;;;6.77;4.67;;;;;;;13.56;51.11;98874.34;4146670;28;20228;-67
2022/05/30 04:46:23;;;;;;;6.50;5.10;;;;;;;14.00;50.47;98840.97;4149396;28;20233;-67
2022/05/30 04:48:25;;;;;;;7.60;4.70;;;;;;;13.33;51.95;98915.53;4144935;28;20232;-70
2022/05/30 04:50:27;;;;;;;7.57;4.67;;;;;;;14.40;50.06;98805.41;4146653;28;20684;-68
2022/05/30 04:52:29;;;;;;;4.80;4.30;;;;;;;14.40;49.77;98843.69;4144490;28;20260;-68
2022/05/30 04:54:31;;;;;;;5.57;4.60;;;;;;;14.05;50.25;98891.16;4156431;28;20229;-68
2022/05/30 04:56:32;;;;;;;5.27;4.77;;;;;;;13.90;50.99;98888.66;4154944;28;20236;-68
2022/05/30 04:58:36;;;;;;;5.20;4.17;;;;;;;13.34;52.23;98932.38;4143161;28;20501;-68
2022/05/30 05:00:38;;;;;;;4.93;4.43;;;;;;;14.51;50.49;98794.91;4150001;28;20232;-68
2022/05/30 05:02:40;;;;;;;5.27;4.60;;;;;;;14.69;50.10;98798.78;4153610;28;20232;-68
2022/05/30 05:04:49;;;;;;;5.40;4.60;;;;;;;14.67;49.94;98828.41;4147275;28;20282;-68
2022/05/30 05:06:50;;;;;;;5.20;4.50;;;;;;;13.68;51.88;98914.66;4152654;28;20205;-68
2022/05/30 05:09:18;;;;;;;5.57;4.33;;;;;;;14.52;50.57;98825.16;4150098;28;20200;-68
2022/05/30 05:11:22;;;;;;;5.50;4.30;;;;;;;14.18;51.08;98864.44;4115124;28;20233;-68
2022/05/30 05:13:23;;;;;;;6.33;4.43;;;;;;;14.21;51.03;98861.38;4150355;28;20240;-68
2022/05/30 05:15:25;;;;;;;5.27;4.70;;;;;;;13.56;52.02;98954.47;4150471;28;20447;-68
2022/05/30 05:17:27;;;;;;;7.63;4.73;;;;;;;13.88;52.16;98880.84;4148413;28;20816;-68
2022/05/30 05:19:30;;;;;;;5.80;4.30;;;;;;;14.73;50.19;98847.34;4146926;28;20319;-68
2022/05/30 05:21:35;;;;;;;4.73;4.30;;;;;;;14.91;50.13;98820.78;4149451;28;20619;-68
2022/05/30 05:23:37;;;;;;;5.27;4.70;;;;;;;14.47;50.57;98902.53;4147432;28;20235;-68
2022/05/30 05:25:40;;;;;;;6.07;4.73;;;;;;;14.22;51.88;98856.84;4150095;28;20290;-68
2022/05/30 05:27:42;;;;;;;6.67;5.13;;;;;;;14.13;51.64;98905.16;4153958;28;20228;-68
2022/05/30 05:29:44;;;;;;;5.13;4.23;;;;;;;14.51;51.17;98861.78;4138794;28;20232;-68
2022/05/30 05:31:46;;;;;;;7.77;4.90;;;;;;;14.19;52.08;98862.59;4150645;28;20279;-69
2022/05/30 05:33:48;;;;;;;5.40;4.90;;;;;;;14.23;51.87;98856.63;4151117;28;21578;-69
2022/05/30 05:35:50;;;;;;;6.67;5.17;;;;;;;13.88;53.19;98890.72;4146238;28;20282;-68
2022/05/30 05:37:51;;;;;;;5.03;4.53;;;;;;;14.00;52.11;98915.81;4153721;28;20566;-69
2022/05/30 05:39:53;;;;;;;7.07;4.93;;;;;;;14.72;51.57;98802.91;4147037;28;20504;-69
2022/05/30 05:41:55;;;;;;;7.83;5.03;;;;;;;15.03;50.46;98819.09;4151207;28;20306;-68
2022/05/30 05:43:58;;;;;;;5.40;4.90;;;;;;;13.52;53.51;98955.91;4147375;28;20236;-69
2022/05/30 05:46:00;;;;;;;7.73;4.93;;;;;;;14.04;52.06;98940.28;4148298;28;20235;-69
2022/05/30 05:48:02;;;;;;;6.90;5.13;;;;;;;14.77;51.14;98841.41;4152056;28;20267;-69
2022/05/30 05:50:05;;;;;;;8.23;4.80;;;;;;;14.68;51.61;98896.13;4158958;28;20310;-68
2022/05/30 05:52:07;;;;;;;6.03;5.07;;;;;;;14.78;51.70;98858.28;4159824;28;20451;-69
2022/05/30 05:54:09;;;;;;;5.63;4.87;;;;;;;15.20;50.96;98813.28;4151922;28;20814;-69
2022/05/30 05:56:18;;;;;;;5.23;4.70;;;;;;;15.03;50.45;98907.44;4150563;28;20231;-69
2022/05/30 05:58:21;;;;;;;6.83;4.73;;;;;;;14.20;52.69;98953.28;4146868;28;20232;-69
2022/05/30 06:00:22;;;;;;;5.53;5.00;;;;;;;15.39;50.72;98844.53;4145969;28;20295;-69
2022/05/30 06:02:26;;;;;;;6.77;4.87;;;;;;;15.09;51.08;98902.31;4147591;28;20705;-68
2022/05/30 06:04:28;;;;;;;5.33;4.80;;;;;;;14.61;51.95;98933.59;4149635;28;20241;-69
2022/05/30 06:06:30;;;;;;;6.30;5.07;;;;;;;14.72;52.05;98875.16;4152572;28;20741;-69
2022/05/30 06:08:38;;;;;;;5.33;4.37;;;;;;;15.38;50.64;98882.22;4149730;28;20223;-69
2022/05/30 06:11:05;;;;;;;5.80;4.70;;;;;;;15.46;50.57;98873.97;4149692;28;20310;-68
2022/05/30 06:13:02;;;;;;;5.87;4.37;;;;;;;15.37;50.81;98892.13;4151244;28;20511;-69
2022/05/30 06:15:05;;;;;;;5.40;4.53;;;;;;;15.13;50.53;98949.03;4150281;28;20237;-69
2022/05/30 06:17:06;;;;;;;4.60;4.20;;;;;;;14.97;51.24;98944.94;4148993;28;20301;-69
2022/05/30 06:19:09;;;;;;;5.40;4.50;;;;;;;14.18;51.92;99043.56;4148126;28;20251;-69
2022/05/30 06:21:11;;;;;;;4.83;4.10;;;;;;;15.47;50.70;98878.25;4147449;28;20277;-69
2022/05/30 06:23:12;;;;;;;9.43;4.10;;;;;;;16.19;49.24;98892.34;4147376;28;20313;-69
2022/05/30 06:25:14;;;;;;;5.07;4.40;;;;;;;15.96;49.81;98940.34;4151317;28;20232;-69
2022/05/30 06:27:18;;;;;;;4.87;3.93;;;;;;;16.11;49.67;98922.09;4145604;28;20516;-69
2022/05/30 06:29:20;;;;;;;5.67;3.83;;;;;;;16.34;49.41;98932.28;4149763;28;20290;-69
2022/05/30 06:31:24;;;;;;;5.10;4.03;;;;;;;15.62;49.96;98963.75;4149738;28;20232;-69
2022/05/30 06:33:26;;;;;;;5.10;4.20;;;;;;;15.87;49.09;98985.34;4149871;28;20241;-68
2022/05/30 06:35:28;;;;;;;4.50;4.00;;;;;;;16.12;49.73;98944.41;4154306;28;20810;-69
2022/05/30 06:37:30;;;;;;;5.30;4.00;;;;;;;16.74;48.10;98923.16;4152008;28;20328;-69
2022/05/30 06:39:31;;;;;;;4.03;3.43;;;;;;;15.74;50.05;99028.25;4147905;28;20265;-69
2022/05/30 06:41:33;;;;;;;5.73;4.27;;;;;;;15.87;49.60;98992.56;4151349;28;20847;-68
2022/05/30 06:43:35;;;;;;;4.10;3.53;;;;;;;16.30;48.78;98968.63;4149253;28;20780;-69
2022/05/30 06:45:37;;;;;;;4.83;3.83;;;;;;;16.11;49.37;98983.78;4144843;28;20300;-69
2022/05/30 06:47:39;;;;;;;5.03;3.70;;;;;;;16.44;48.23;98944.41;4148916;28;20362;-69
2022/05/30 06:49:40;;;;;;;6.67;3.83;;;;;;;16.44;48.53;98974.72;4149362;28;20236;-69
2022/05/30 06:51:44;;;;;;;4.47;4.03;;;;;;;15.97;48.93;98992.94;4149252;28;20620;-69
2022/05/30 06:53:45;;;;;;;5.07;3.83;;;;;;;16.25;49.04;98970.28;4150321;28;20290;-69
2022/05/30 06:55:49;;;;;;;4.77;4.10;;;;;;;15.55;49.67;99056.72;4147989;28;20282;-69
2022/05/30 07:00:11;;;;;;;4.80;4.00;;;;;;;15.90;48.96;99022.44;4145185;28;20233;-69
2022/05/30 07:02:13;;;;;;;5.83;3.80;;;;;;;16.37;48.70;98973.97;4138449;28;20287;-69
2022/05/30 07:04:15;;;;;;;4.47;3.80;;;;;;;17.00;47.63;98948.09;4149589;28;20232;-69
2022/05/30 07:06:21;;;;;;;6.10;3.63;;;;;;;16.64;48.75;98989.91;4145190;28;20802;-68
2022/05/30 07:08:23;;;;;;;5.57;3.63;;;;;;;16.70;48.38;98972.91;4146095;28;20742;-69
2022/05/30 07:10:27;;;;;;;7.53;4.13;;;;;;;16.41;48.49;99002.00;4146534;28;20233;-69
2022/05/30 07:12:29;;;;;;;4.17;3.73;;;;;;;16.73;47.88;99016.25;4146228;28;20228;-69
2022/05/30 07:14:30;;;;;;;6.63;4.17;;;;;;;16.23;49.54;99090.41;4148119;28;20229;-69
2022/05/30 07:16:32;;;;;;;5.47;4.13;;;;;;;16.38;48.58;99053.38;4148005;28;20725;-68
2022/05/30 07:18:34;;;;;;;5.80;3.80;;;;;;;17.16;47.58;98987.84;4146339;28;20232;-69
2022/05/30 07:20:36;;;;;;;5.57;3.90;;;;;;;16.68;48.42;99040.25;4151178;28;20301;-69
2022/05/30 07:22:38;;;;;;;5.00;4.03;;;;;;;17.29;47.89;98977.00;4151419;28;20228;-69
2022/05/30 07:24:39;;;;;;;7.20;4.43;;;;;;;16.38;49.38;99037.28;4151719;28;20237;-69
2022/05/30 07:26:41;;;;;;;4.97;3.97;;;;;;;17.03;47.79;98994.13;4150829;28;20236;-69
2022/05/30 07:28:43;;;;;;;4.67;3.63;;;;;;;16.96;47.89;99046.25;4146204;28;20471;-69
2022/05/30 07:30:44;;;;;;;6.30;4.17;;;;;;;17.06;47.10;99060.03;4165335;28;20236;-69
2022/05/30 07:32:46;;;;;;;5.37;3.93;;;;;;;17.64;47.05;98995.22;4167853;28;20790;-69
2022/05/30 07:34:48;;;;;;;4.00;3.63;;;;;;;17.02;47.68;99066.88;4162491;28;20212;-69
2022/05/30 07:36:49;;;;;;;6.90;3.80;;;;;;;17.05;47.20;99034.22;4152442;28;20271;-69
2022/05/30 07:38:52;;;;;;;4.07;3.00;;;;;;;17.17;47.53;99055.81;4166949;28;20196;-69
2022/05/30 07:40:53;;;;;;;4.97;3.67;;;;;;;17.23;46.93;99020.00;4168527;28;20270;-69
2022/05/30 07:42:55;;;;;;;3.53;3.23;;;;;;;17.10;47.42;99053.16;4165611;28;20266;-69
2022/05/30 07:44:57;;;;;;;4.33;3.00;;;;;;;17.72;45.74;99006.75;4169474;28;20204;-69
2022/05/30 07:46:59;;;;;;;4.83;3.33;;;;;;;17.46;46.15;99047.13;4160716;28;20209;-69
2022/05/30 07:49:01;;;;;;;4.67;3.70;;;;;;;17.53;46.30;99044.34;4149507;28;20299;-68
2022/05/30 07:51:04;;;;;;;3.57;2.97;;;;;;;17.94;46.16;99001.72;4148108;28;20294;-69
2022/05/30 07:53:06;;;;;;;6.77;3.60;;;;;;;17.92;46.74;99044.97;4150914;28;20232;-68
2022/05/30 07:55:08;;;;;;;5.87;3.23;;;;;;;17.69;45.95;99075.22;4152324;28;20925;-68
2022/05/30 07:57:10;;;;;;;4.30;3.00;;;;;;;18.02;45.56;99026.44;4153209;28;20294;-68
2022/05/30 07:59:12;;;;;;;4.50;2.60;;;;;;;18.02;45.11;99066.78;4148677;28;20465;-68
2022/05/30 08:01:18;;;;;;;5.37;3.20;;;;;;;18.37;45.27;99033.91;4148209;28;20732;-68
2022/05/30 08:03:21;;;;;;;4.27;3.00;;;;;;;18.26;45.42;99050.00;4147033;28;20233;-68
2022/05/30 08:05:23;;;;;;;3.30;3.00;;;;;;;17.67;45.82;99096.13;4151692;28;20874;-68
2022/05/30 08:07:25;;;;;;;5.67;3.70;;;;;;;18.11;46.20;99047.69;4149052;28;20247;-68
2022/05/30 08:09:26;;;;;;;4.17;2.97;;;;;;;18.22;45.26;99046.91;4150285;28;20236;-67
2022/05/30 08:11:28;;;;;;;5.77;3.10;;;;;;;18.58;44.61;99004.81;4150641;28;20655;-68
2022/05/30 08:13:30;;;;;;;4.60;3.20;;;;;;;18.06;44.65;99072.56;4150005;28;20233;-68
2022/05/30 08:15:32;;;;;;;5.53;3.20;;;;;;;18.08;44.83;99089.28;4151131;28;20498;-68
2022/05/30 08:17:33;;;;;;;3.23;2.90;;;;;;;17.39;46.42;99081.25;4152743;28;20232;-67
2022/05/30 08:19:39;;;;;;;3.20;2.90;;;;;;;17.98;45.44;99075.53;4149134;28;20331;-69
2022/05/30 08:21:49;;;;;;;5.43;3.00;;;;;;;18.33;45.68;99038.06;4149366;28;20224;-69
2022/05/30 08:23:51;;;;;;;3.70;2.80;;;;;;;17.61;44.36;99140.81;4141941;28;20241;-67
2022/05/30 08:25:53;;;;;;;3.57;3.03;;;;;;;18.14;44.04;99058.00;4149184;28;20651;-67
2022/05/30 08:27:54;;;;;;;5.03;2.80;;;;;;;18.74;42.83;99031.06;4156395;28;20723;-69
2022/05/30 08:29:56;;;;;;;3.43;2.80;;;;;;;18.64;43.05;99041.56;4150855;28;20298;-69
2022/05/30 08:31:58;;;;;;;8.50;3.03;;;;;;;18.69;43.94;99057.06;4148239;28;20236;-67
2022/05/30 08:34:00;;;;;;;3.00;2.77;;;;;;;18.63;43.65;99056.09;4145512;28;20741;-67
2022/05/30 08:36:06;;;;;;;5.47;2.90;;;;;;;18.99;43.98;99022.03;4150332;28;20240;-69
2022/05/30 08:38:08;;;;;;;3.23;2.93;;;;;;;18.46;43.00;99117.00;4148316;28;20233;-67
2022/05/30 08:42:40;;;;;;;3.57;2.50;;;;;;;19.29;42.37;99069.63;4153837;28;20309;-69
2022/05/30 08:44:42;;;;;;;3.73;3.33;;;;;;;18.89;43.25;99113.34;4157335;28;20445;-69
2022/05/30 08:46:57;;;;;;;3.07;2.77;;;;;;;18.59;43.39;99119.50;4164736;28;20212;-69
2022/05/30 08:49:20;;;;;;;3.67;2.60;;;;;;;18.80;42.86;99109.31;4162584;28;20528;-69
2022/05/30 08:51:54;;;;;;;2.57;2.37;;;;;;;18.66;43.33;99103.28;4169071;28;20247;-67
2022/05/30 08:54:20;;;;;;;3.77;2.80;;;;;;;18.53;42.20;99115.06;4144326;28;20706;-68
2022/05/30 08:56:33;;;;;;;2.97;2.57;;;;;;;18.92;41.69;99085.97;4166125;28;20464;-68
2022/05/30 08:58:47;;;;;;;4.90;2.50;;;;;;;19.29;42.14;99069.63;4161754;28;20224;-69
2022/05/30 09:00:56;;;;;;;5.10;2.40;;;;;;;19.21;42.33;99072.66;4161615;28;21042;-69
2022/05/30 09:03:03;;;;;;;3.80;2.53;;;;;;;18.76;42.24;99134.00;4166086;28;20701;-68
2022/05/30 09:05:31;;;;;;;3.67;2.80;;;;;;;19.57;42.34;99042.00;4168707;28;20232;-69
2022/05/30 09:07:52;;;;;;;3.13;2.10;;;;;;;19.54;41.46;99082.88;4167670;28;20385;-70
2022/05/30 09:10:04;;;;;;;3.33;2.23;;;;;;;19.30;40.39;99142.19;4167461;28;20461;-70
2022/05/30 09:12:18;;;;;;;2.50;2.30;;;;;;;19.18;40.26;99165.56;4166794;28;20262;-68
2022/05/30 09:14:45;;;;;;;5.03;2.40;;;;;;;19.96;38.05;99112.44;4166004;28;20377;-68
2022/05/30 09:16:53;;;;;;;4.13;2.70;;;;;;;19.21;38.26;99173.19;4127962;28;20507;-68
2022/05/30 09:18:58;;;;;;;3.60;2.40;;;;;;;19.96;39.10;99123.25;4162831;28;20204;-68
2022/05/30 09:21:02;;;;;;;3.63;2.50;;;;;;;20.05;40.72;99094.81;4168956;28;20247;-68
2022/05/30 09:23:05;;;;;;;3.67;2.40;;;;;;;20.06;40.96;99109.97;4168105;28;20239;-68
2022/05/30 09:27:34;;;;;;;5.43;2.73;;;;;;;19.05;39.50;99115.41;4192540;28;20287;-69
2022/05/30 09:29:51;;;;;;;4.37;2.73;;;;;;;19.82;38.80;99102.94;4171679;28;20236;-69
2022/05/30 09:32:23;;;;;;;2.90;2.30;;;;;;;20.12;38.40;99112.78;4164655;28;20758;-68
2022/05/30 09:34:35;;;;;;;4.90;2.63;;;;;;;20.19;37.93;99111.56;4170866;28;20706;-68
2022/05/30 09:36:48;;;;;;;4.90;2.73;;;;;;;19.73;40.03;99142.94;4169025;28;20753;-68
2022/05/30 09:39:14;;;;;;;2.77;2.27;;;;;;;20.43;39.82;99071.88;4160873;28;20216;-68
2022/05/30 09:41:17;;;;;;;3.90;2.53;;;;;;;19.85;40.66;99127.56;4164456;28;20244;-68
2022/05/30 09:43:26;;;;;;;5.13;2.40;;;;;;;20.19;39.04;99122.38;4165137;28;20237;-68
2022/05/30 09:45:30;;;;;;;3.50;2.30;;;;;;;21.03;38.67;99064.31;4165812;28;20321;-68
2022/05/30 09:47:32;;;;;;;5.17;2.23;;;;;;;20.76;37.52;99085.69;4166185;28;20258;-68
2022/05/30 09:49:36;;;;;;;2.83;2.13;;;;;;;21.10;37.89;99097.41;4165815;28;20236;-68
2022/05/30 09:51:45;;;;;;;3.37;2.53;;;;;;;19.61;39.47;99134.84;4164288;28;20236;-69
2022/05/30 09:53:51;;;;;;;2.73;2.50;;;;;;;18.76;39.46;99150.16;4164217;28;21020;-69
2022/05/30 09:55:54;;;;;;;6.03;2.60;;;;;;;20.00;39.33;99102.81;4161109;28;20258;-69
2022/05/30 09:57:57;;;;;;;4.63;2.60;;;;;;;19.85;38.96;99132.16;4163885;28;20287;-70
2022/05/30 10:00:12;;;;;;;3.97;2.93;;;;;;;20.55;37.42;99063.72;4165849;28;20247;-69
2022/05/30 10:02:25;;;;;;;4.27;2.60;;;;;;;20.39;38.46;99103.09;4164794;28;20239;-69